Nearby METAR Reports for Burr Ridge, IL

 

KMDW - Chicago, Illinois, USA
Distance from station: ENE 8mi, 13km
Updated: Mon, 18-Jun-2018 9:32pm MST
Overcast
Overcast
 Wind from NE
Wind: NE 10 mph , 17 km/h
Temperature: 72°F , 22°C
Dew Point: 68°F , 20°C
Humidity: 88%
Barometer: 30.01 inHg , 1016.3 hPa
Clouds: Overcast
Visibility: 10 miles , 16 km
Cloud details: Overcast 900 ft
2018/06/19 04:32 KMDW 190432Z 04009KT 10SM OVC009 22/20 A3001 RMK AO2 T02170200
KLOT - Romeoville/Chi, Illinois, USA
Distance from station: SW 15mi, 24km
Updated: Mon, 18-Jun-2018 9:15pm MST
Partly cloudy
Partly cloudy
 Wind from N
Wind: N 3 mph , 6 km/h
Temperature: 73°F , 23°C
Dew Point: 70°F , 21°C
Humidity: 89%
Barometer: 30.00 inHg , 1015.9 hPa
Clouds: Partly cloudy
Visibility: 10 miles , 16 km
Cloud details: Partly cloudy 5500 ft
Partly cloudy 11000 ft
2018/06/19 04:15 KLOT 190415Z AUTO 35003KT 10SM SCT055 SCT110 23/21 A3000 RMK AO2 T02300205
 
KORD - Chicago O'hare, Illinois, USA
Distance from station: N 16mi, 25km
Updated: Mon, 18-Jun-2018 8:51pm MST
Overcast
Overcast
 Wind from N
Wind: N 10 mph , 17 km/h
Temperature: 73°F , 23°C
Dew Point: 70°F , 21°C
Humidity: 89%
Barometer: 29.98 inHg , 1015.2 hPa
Clouds: Overcast
Visibility: 10 miles , 16 km
Cloud details: Mostly cloudy 700 ft
Mostly cloudy 13000 ft
Overcast 18000 ft
2018/06/19 03:51 KORD 190351Z 35009KT 10SM BKN007 BKN130 OVC180 23/21 A2998 RMK AO2 RAB25E34 SLP148 P0000 T02280211 $
KDPA - Chicago/Dupage, Illinois, USA
Distance from station: WNW 21mi, 34km
Updated: Mon, 18-Jun-2018 8:52pm MST
Nearby thunderstorm, Partly cloudy
Nearby thunderstorm, Partly cloudy
 Wind from NW
Wind: NW 5 mph , 7 km/h
Temperature: 73°F , 23°C
Dew Point: 72°F , 22°C
Humidity: 94%
Barometer: 29.99 inHg , 1015.6 hPa
Summary: Nearby Thunderstorm
Clouds: Partly cloudy
Visibility: 10 miles , 16 km
Cloud details: Partly cloudy 11000 ft
2018/06/19 03:52 KDPA 190352Z 31004KT 10SM VCTS SCT110 23/22 A2999 RMK AO2 LTG DSNT W SLP150 T02330222
 
KJOT - Joliet, Illinois, USA
Distance from station: SW 22mi, 36km
Updated: Mon, 18-Jun-2018 9:35pm MST
Partly cloudy
Partly cloudy
 Wind from calm
Wind: Calm
Temperature: 77°F , 25°C
Dew Point: 72°F , 22°C
Humidity: 83%
Barometer: 30.00 inHg , 1015.9 hPa
Clouds: Partly cloudy
Visibility: 10 miles , 16 km
Cloud details: Partly cloudy 4800 ft
Partly cloudy 7000 ft
Partly cloudy 10000 ft
2018/06/19 04:35 KJOT 190435Z AUTO 00000KT 10SM SCT048 SCT070 SCT100 25/22 A3000 RMK AO2 LTG DSNT SW THRU NW T02490220
KIGQ - Chicago/Lansing, Illinois, USA
Distance from station: SE 24mi, 39km
Updated: Mon, 18-Jun-2018 9:35pm MST
Partly cloudy
Partly cloudy
 Wind from NNE
Wind: NNE 12 mph , 19 km/h
Temperature: 68°F , 20°C
Dew Point: 68°F , 20°C
Humidity: 100%
Barometer: 30.01 inHg , 1016.3 hPa
Clouds: Partly cloudy
Visibility: 10 miles , 16 km
Cloud details: Partly cloudy 1100 ft
Partly cloudy 1400 ft
Partly cloudy 2300 ft
2018/06/19 04:35 KIGQ 190435Z AUTO 02010KT 10SM SCT011 SCT014 SCT023 20/20 A3001 RMK AO2 T01980198
 
KPWK - Palwaukee, Illinois, USA
Distance from station: N 25mi, 40km
Updated: Mon, 18-Jun-2018 8:52pm MST
Light rain, Overcast
Light rain, Overcast
 Wind from NNW
Wind: NNW 5 mph , 7 km/h
Temperature: 72°F , 22°C
Dew Point: 70°F , 21°C
Humidity: 94%
Barometer: 30.01 inHg , 1016.3 hPa
Summary: Light rain
Clouds: Overcast
Visibility: 10 miles , 16 km
Cloud details: Overcast 500 ft
2018/06/19 03:52 KPWK 190352Z AUTO 33004KT 10SM -RA OVC005 22/21 A3001 RMK AO2 LTG DSNT SW RAB52 SLP156 P0000 T02170211
KGYY - Gary Regional, Indiana, USA
Distance from station: ESE 27mi, 43km
Updated: Mon, 18-Jun-2018 9:35pm MST
Overcast
Overcast
 Wind from N
Wind: N 7 mph , 11 km/h
Temperature: 68°F , 20°C
Dew Point: 66°F , 19°C
Humidity: 94%
Barometer: 30.03 inHg , 1016.9 hPa
Clouds: Overcast
Visibility: 10 miles , 16 km
Cloud details: Overcast 300 ft
2018/06/19 04:35 KGYY 190435Z AUTO 36006KT 10SM OVC003 20/19 A3003 RMK AO2 T01950189
 
KARR - Chicago/Aurora, Illinois, USA
Distance from station: W 30mi, 48km
Updated: Mon, 18-Jun-2018 9:32pm MST
Heavy thunderstorm, Rain, Mist, Overcast
Heavy thunderstorm, Rain, Mist, Overcast
 Wind from W
Wind: W 9 mph , 15 km/h
Temperature: 73°F , 23°C
Dew Point: 72°F , 22°C
Humidity: 94%
Barometer: 30.03 inHg , 1016.9 hPa
Summary: Heavy thunderstorm, Rain, Mist
Clouds: Overcast
Visibility: 2 1/2 miles , 4 km
Cloud details: Few Clouds 4500 ft
Mostly cloudy 6000 ft
Overcast 8500 ft
2018/06/19 04:32 KARR 190432Z AUTO 28008KT 2 1/2SM +TSRA BR FEW045 BKN060 OVC085 23/22 A3003 RMK AO2 PK WND 28028/0401 LTG DSNT N AND S AND W RAB0356 TSB30 PRESRR P0014 T02280217
KC09 - Morris-Washburn, Illinois, USA
Distance from station: SW 35mi, 56km
Updated: Mon, 18-Jun-2018 9:35pm MST

 Wind from NNE
Wind: NNE 3 mph , 6 km/h
Visibility: 10 miles , 16 km
2018/06/19 04:35 KC09 190435Z AUTO 03003KT 10SM -VCTSRA SCT018 BKN039 OVC050 23/22 A3000 RMK AO2 LTG DSNT W AND NW T02310215
 
KDKB - De Kalb, Illinois, USA
Distance from station: WNW 43mi, 69km
Updated: Mon, 18-Jun-2018 9:35pm MST

 Wind from SSW
Wind: SSW 6 mph , 9 km/h
Visibility: 10 miles , 16 km
2018/06/19 04:35 KDKB 190435Z AUTO 20005KT 10SM -VCTSRA SCT090 BKN120 22/22 A3001 RMK AO2 LTG DSNT E THRU SW P0008 T02210221
KUGN - Waukegan, Illinois, USA
Distance from station: N 46mi, 73km
Updated: Mon, 18-Jun-2018 8:55pm MST
Light rain, Mostly cloudy
Light rain, Mostly cloudy
 Wind from N
Wind: N 9 mph , 15 km/h
Temperature: 64°F , 18°C
Dew Point: 64°F , 18°C
Humidity: 100%
Barometer: 30.00 inHg , 1015.9 hPa
Summary: Light rain
Clouds: Mostly cloudy
Visibility: 10 miles , 16 km
Cloud details: Partly cloudy 400 ft
Mostly cloudy 12000 ft
2018/06/19 03:55 KUGN 190355Z AUTO 01008KT 10SM -RA SCT004 BKN120 18/18 A3000 RMK AO2 SLP147 P0008 T01780178
 
KIKK - Kankakee, Illinois, USA
Distance from station: S 48mi, 77km
Updated: Mon, 18-Jun-2018 9:35pm MST
Partly cloudy
Partly cloudy
 Wind from calm
Wind: Calm
Temperature: 75°F , 24°C
Dew Point: 72°F , 22°C
Humidity: 89%
Barometer: 29.99 inHg , 1015.6 hPa
Clouds: Partly cloudy
Visibility: 10 miles , 16 km
Cloud details: Partly cloudy 5000 ft
2018/06/19 04:35 KIKK 190435Z AUTO 00000KT 10SM SCT050 24/22 A2999 RMK AO2 T02410215